Mosheim, Tennessee
Current Conditions -  °F | °C
As of 4:15 PM on Tuesday 21 Oct 2014 (Local Time) from KMOR Reporting Station
Clear Clear  
Wind Chill: 64°   Ceiling: Unl
Heat Index: 64°   Visibility: 10mi
Dew Point: 43°   Wind: 9mph
Humidity: 45%   Direction: 310°NW
Pressure: 30"   Gusts: NA
Location:  36.19°N, 82.96°W
Report Text: KMOR 212015Z AUTO 31008KT 10SM CLR 18/06 A3000 RMK
Loading
Personal Weather Stations






























Interactive Weather Map
Tropical Storm Tracking
New forecast layout! Learn more

10-Day Weather Forecast

Advertisements
Track Severe Weather on mobile